sensor_id;sensor_type;location;lat;lon;timestamp;temperature;humidity
5218;DHT22;26539;51.064;6.346;2023-09-18T00:00:25;21.50;99.90
5218;DHT22;26539;51.064;6.346;2023-09-18T00:02:51;21.40;99.90
5218;DHT22;26539;51.064;6.346;2023-09-18T00:05:16;21.40;99.90
5218;DHT22;26539;51.064;6.346;2023-09-18T00:07:43;21.40;99.90
5218;DHT22;26539;51.064;6.346;2023-09-18T00:10:12;21.40;99.90
5218;DHT22;26539;51.064;6.346;2023-09-18T00:12:39;21.30;1.00
5218;DHT22;26539;51.064;6.346;2023-09-18T00:15:05;21.30;1.00
5218;DHT22;26539;51.064;6.346;2023-09-18T00:17:31;21.30;1.00
5218;DHT22;26539;51.064;6.346;2023-09-18T00:19:57;21.30;99.90
5218;DHT22;26539;51.064;6.346;2023-09-18T00:22:22;21.30;1.00
5218;DHT22;26539;51.064;6.346;2023-09-18T00:24:49;21.30;1.00
5218;DHT22;26539;51.064;6.346;2023-09-18T00:27:15;21.30;1.00
5218;DHT22;26539;51.064;6.346;2023-09-18T00:29:41;21.30;99.90
5218;DHT22;26539;51.064;6.346;2023-09-18T00:32:07;21.30;99.90
5218;DHT22;26539;51.064;6.346;2023-09-18T00:34:33;21.30;1.00
5218;DHT22;26539;51.064;6.346;2023-09-18T00:36:58;21.20;1.00
5218;DHT22;26539;51.064;6.346;2023-09-18T00:39:27;21.20;1.00
5218;DHT22;26539;51.064;6.346;2023-09-18T00:41:52;21.20;1.00
5218;DHT22;26539;51.064;6.346;2023-09-18T00:44:23;21.10;1.00
5218;DHT22;26539;51.064;6.346;2023-09-18T00:46:50;21.20;1.00
5218;DHT22;26539;51.064;6.346;2023-09-18T00:49:17;21.20;1.00
5218;DHT22;26539;51.064;6.346;2023-09-18T00:51:44;21.10;1.00
5218;DHT22;26539;51.064;6.346;2023-09-18T00:54:10;21.10;1.00
5218;DHT22;26539;51.064;6.346;2023-09-18T00:56:36;21.10;1.00
5218;DHT22;26539;51.064;6.346;2023-09-18T00:59:02;21.20;1.00
5218;DHT22;26539;51.064;6.346;2023-09-18T01:01:30;21.20;1.00
5218;DHT22;26539;51.064;6.346;2023-09-18T01:03:58;21.20;99.90
5218;DHT22;26539;51.064;6.346;2023-09-18T01:06:26;21.20;99.90
5218;DHT22;26539;51.064;6.346;2023-09-18T01:08:56;21.30;99.90
5218;DHT22;26539;51.064;6.346;2023-09-18T01:11:31;21.20;99.90
5218;DHT22;26539;51.064;6.346;2023-09-18T01:14:32;21.20;99.90
5218;DHT22;26539;51.064;6.346;2023-09-18T01:17:00;21.20;99.90
5218;DHT22;26539;51.064;6.346;2023-09-18T01:19:36;21.20;99.90
5218;DHT22;26539;51.064;6.346;2023-09-18T01:22:06;21.20;99.90
5218;DHT22;26539;51.064;6.346;2023-09-18T01:24:36;21.20;99.90
5218;DHT22;26539;51.064;6.346;2023-09-18T01:27:02;21.10;99.90
5218;DHT22;26539;51.064;6.346;2023-09-18T01:29:31;21.10;1.00
5218;DHT22;26539;51.064;6.346;2023-09-18T01:31:57;21.10;99.90
5218;DHT22;26539;51.064;6.346;2023-09-18T01:34:28;21.10;1.00
5218;DHT22;26539;51.064;6.346;2023-09-18T01:36:57;21.00;1.00
5218;DHT22;26539;51.064;6.346;2023-09-18T01:39:24;21.00;1.00
5218;DHT22;26539;51.064;6.346;2023-09-18T01:41:52;21.00;1.00
5218;DHT22;26539;51.064;6.346;2023-09-18T01:44:18;21.00;1.00
5218;DHT22;26539;51.064;6.346;2023-09-18T01:46:44;21.00;1.00
5218;DHT22;26539;51.064;6.346;2023-09-18T01:49:10;21.10;1.00
5218;DHT22;26539;51.064;6.346;2023-09-18T01:51:35;21.00;1.00
5218;DHT22;26539;51.064;6.346;2023-09-18T01:54:01;21.00;1.00
5218;DHT22;26539;51.064;6.346;2023-09-18T01:56:27;21.00;1.00
5218;DHT22;26539;51.064;6.346;2023-09-18T01:58:52;21.00;1.00
5218;DHT22;26539;51.064;6.346;2023-09-18T02:01:18;21.00;1.00
5218;DHT22;26539;51.064;6.346;2023-09-18T02:03:43;21.00;1.00
5218;DHT22;26539;51.064;6.346;2023-09-18T02:06:11;21.00;1.00
5218;DHT22;26539;51.064;6.346;2023-09-18T02:08:36;21.10;1.00
5218;DHT22;26539;51.064;6.346;2023-09-18T02:11:02;21.10;1.00
5218;DHT22;26539;51.064;6.346;2023-09-18T02:13:30;21.10;1.00
5218;DHT22;26539;51.064;6.346;2023-09-18T02:15:56;21.10;1.00
5218;DHT22;26539;51.064;6.346;2023-09-18T02:18:22;21.10;1.00
5218;DHT22;26539;51.064;6.346;2023-09-18T02:20:47;21.10;1.00
5218;DHT22;26539;51.064;6.346;2023-09-18T02:23:17;21.20;1.00
5218;DHT22;26539;51.064;6.346;2023-09-18T02:25:44;21.20;1.00
5218;DHT22;26539;51.064;6.346;2023-09-18T02:28:09;21.10;1.00
5218;DHT22;26539;51.064;6.346;2023-09-18T02:30:35;21.10;1.00
5218;DHT22;26539;51.064;6.346;2023-09-18T02:33:01;21.10;1.00
5218;DHT22;26539;51.064;6.346;2023-09-18T02:35:28;21.10;1.00
5218;DHT22;26539;51.064;6.346;2023-09-18T02:37:54;21.10;1.00
5218;DHT22;26539;51.064;6.346;2023-09-18T02:40:19;21.20;1.00
5218;DHT22;26539;51.064;6.346;2023-09-18T02:42:45;21.20;1.00
5218;DHT22;26539;51.064;6.346;2023-09-18T02:45:10;21.20;1.00
5218;DHT22;26539;51.064;6.346;2023-09-18T02:47:36;21.30;1.00
5218;DHT22;26539;51.064;6.346;2023-09-18T02:50:04;21.40;99.90
5218;DHT22;26539;51.064;6.346;2023-09-18T02:52:30;21.40;99.90
5218;DHT22;26539;51.064;6.346;2023-09-18T02:54:56;21.50;99.90
5218;DHT22;26539;51.064;6.346;2023-09-18T02:57:21;21.50;99.90
5218;DHT22;26539;51.064;6.346;2023-09-18T02:59:47;21.50;99.90
5218;DHT22;26539;51.064;6.346;2023-09-18T03:02:12;21.50;99.90
5218;DHT22;26539;51.064;6.346;2023-09-18T03:04:38;21.50;99.90
5218;DHT22;26539;51.064;6.346;2023-09-18T03:07:03;21.50;99.90
5218;DHT22;26539;51.064;6.346;2023-09-18T03:09:29;21.50;99.90
5218;DHT22;26539;51.064;6.346;2023-09-18T03:11:55;21.50;99.90
5218;DHT22;26539;51.064;6.346;2023-09-18T03:14:20;21.60;99.90
5218;DHT22;26539;51.064;6.346;2023-09-18T03:16:46;21.50;99.90
5218;DHT22;26539;51.064;6.346;2023-09-18T03:19:11;21.60;99.90
5218;DHT22;26539;51.064;6.346;2023-09-18T03:21:37;21.50;99.90
5218;DHT22;26539;51.064;6.346;2023-09-18T03:24:03;21.50;99.90
5218;DHT22;26539;51.064;6.346;2023-09-18T03:26:29;21.50;99.90
5218;DHT22;26539;51.064;6.346;2023-09-18T03:28:55;21.50;99.90
5218;DHT22;26539;51.064;6.346;2023-09-18T03:31:20;21.50;99.90
5218;DHT22;26539;51.064;6.346;2023-09-18T03:33:46;21.50;23.20
5218;DHT22;26539;51.064;6.346;2023-09-18T03:36:11;21.50;55.90
5218;DHT22;26539;51.064;6.346;2023-09-18T03:38:37;21.50;99.90
5218;DHT22;26539;51.064;6.346;2023-09-18T03:41:03;21.50;99.90
5218;DHT22;26539;51.064;6.346;2023-09-18T03:43:28;21.50;99.90
5218;DHT22;26539;51.064;6.346;2023-09-18T03:45:54;21.50;99.90
5218;DHT22;26539;51.064;6.346;2023-09-18T03:48:19;21.40;99.90
5218;DHT22;26539;51.064;6.346;2023-09-18T03:50:47;21.50;99.90
5218;DHT22;26539;51.064;6.346;2023-09-18T03:53:12;21.40;99.90
5218;DHT22;26539;51.064;6.346;2023-09-18T03:55:38;21.40;99.90
5218;DHT22;26539;51.064;6.346;2023-09-18T03:58:04;21.40;99.90
5218;DHT22;26539;51.064;6.346;2023-09-18T04:00:30;21.50;99.90
5218;DHT22;26539;51.064;6.346;2023-09-18T04:02:55;21.40;99.90
5218;DHT22;26539;51.064;6.346;2023-09-18T04:05:21;21.40;99.90
5218;DHT22;26539;51.064;6.346;2023-09-18T04:07:47;21.30;99.90
5218;DHT22;26539;51.064;6.346;2023-09-18T04:10:16;21.30;99.90
5218;DHT22;26539;51.064;6.346;2023-09-18T04:12:48;21.30;99.90
5218;DHT22;26539;51.064;6.346;2023-09-18T04:15:15;21.20;99.90
5218;DHT22;26539;51.064;6.346;2023-09-18T04:17:42;21.20;99.90
5218;DHT22;26539;51.064;6.346;2023-09-18T04:20:09;21.20;99.90
5218;DHT22;26539;51.064;6.346;2023-09-18T04:22:34;21.20;99.90
5218;DHT22;26539;51.064;6.346;2023-09-18T04:25:00;21.10;99.90
5218;DHT22;26539;51.064;6.346;2023-09-18T04:27:25;21.10;99.90
5218;DHT22;26539;51.064;6.346;2023-09-18T04:29:51;21.10;99.90
5218;DHT22;26539;51.064;6.346;2023-09-18T04:32:16;21.10;99.90
5218;DHT22;26539;51.064;6.346;2023-09-18T04:34:42;21.10;99.90
5218;DHT22;26539;51.064;6.346;2023-09-18T04:37:07;21.00;99.90
5218;DHT22;26539;51.064;6.346;2023-09-18T04:39:33;21.00;99.90
5218;DHT22;26539;51.064;6.346;2023-09-18T04:42:01;20.90;99.90
5218;DHT22;26539;51.064;6.346;2023-09-18T04:44:29;20.80;99.90
5218;DHT22;26539;51.064;6.346;2023-09-18T04:46:54;20.80;99.90
5218;DHT22;26539;51.064;6.346;2023-09-18T04:49:20;20.80;99.90
5218;DHT22;26539;51.064;6.346;2023-09-18T04:51:46;20.80;99.90
5218;DHT22;26539;51.064;6.346;2023-09-18T04:54:11;20.80;99.90
5218;DHT22;26539;51.064;6.346;2023-09-18T04:56:37;20.80;99.90
5218;DHT22;26539;51.064;6.346;2023-09-18T04:59:03;20.80;99.90
5218;DHT22;26539;51.064;6.346;2023-09-18T05:01:28;20.80;99.90
5218;DHT22;26539;51.064;6.346;2023-09-18T05:03:55;20.70;99.90
5218;DHT22;26539;51.064;6.346;2023-09-18T05:06:21;20.70;99.90
5218;DHT22;26539;51.064;6.346;2023-09-18T05:08:46;20.70;99.90
5218;DHT22;26539;51.064;6.346;2023-09-18T05:11:12;20.70;99.90
5218;DHT22;26539;51.064;6.346;2023-09-18T05:13:38;20.70;99.90
5218;DHT22;26539;51.064;6.346;2023-09-18T05:16:03;20.70;99.90
5218;DHT22;26539;51.064;6.346;2023-09-18T05:18:29;20.70;78.90
5218;DHT22;26539;51.064;6.346;2023-09-18T05:20:54;20.70;64.10
5218;DHT22;26539;51.064;6.346;2023-09-18T05:23:20;20.70;49.10
5218;DHT22;26539;51.064;6.346;2023-09-18T05:25:47;20.70;51.40
5218;DHT22;26539;51.064;6.346;2023-09-18T05:28:12;20.70;29.80
5218;DHT22;26539;51.064;6.346;2023-09-18T05:30:39;20.70;1.00
5218;DHT22;26539;51.064;6.346;2023-09-18T05:33:05;20.70;1.00
5218;DHT22;26539;51.064;6.346;2023-09-18T05:35:35;20.70;1.00
5218;DHT22;26539;51.064;6.346;2023-09-18T05:38:02;20.80;1.00
5218;DHT22;26539;51.064;6.346;2023-09-18T05:40:28;20.80;1.00
5218;DHT22;26539;51.064;6.346;2023-09-18T05:42:54;20.80;1.00
5218;DHT22;26539;51.064;6.346;2023-09-18T05:45:20;20.80;1.00
5218;DHT22;26539;51.064;6.346;2023-09-18T05:47:46;20.80;1.00
5218;DHT22;26539;51.064;6.346;2023-09-18T05:50:13;20.90;1.00
5218;DHT22;26539;51.064;6.346;2023-09-18T05:52:46;20.90;1.00
5218;DHT22;26539;51.064;6.346;2023-09-18T05:55:14;20.90;1.00
5218;DHT22;26539;51.064;6.346;2023-09-18T05:57:39;21.00;99.90
5218;DHT22;26539;51.064;6.346;2023-09-18T06:00:05;21.00;99.90
5218;DHT22;26539;51.064;6.346;2023-09-18T06:02:31;21.00;99.90
5218;DHT22;26539;51.064;6.346;2023-09-18T06:05:00;21.10;99.90
5218;DHT22;26539;51.064;6.346;2023-09-18T06:07:29;21.10;32.90
5218;DHT22;26539;51.064;6.346;2023-09-18T06:09:56;21.20;1.00
5218;DHT22;26539;51.064;6.346;2023-09-18T06:12:22;21.20;1.00
5218;DHT22;26539;51.064;6.346;2023-09-18T06:14:49;21.20;1.00
5218;DHT22;26539;51.064;6.346;2023-09-18T06:17:15;21.30;1.00
5218;DHT22;26539;51.064;6.346;2023-09-18T06:19:44;21.30;99.90
5218;DHT22;26539;51.064;6.346;2023-09-18T06:22:11;21.40;99.90
5218;DHT22;26539;51.064;6.346;2023-09-18T06:24:37;21.70;99.90
5218;DHT22;26539;51.064;6.346;2023-09-18T06:27:03;22.00;99.90
5218;DHT22;26539;51.064;6.346;2023-09-18T06:29:34;22.00;1.00
5218;DHT22;26539;51.064;6.346;2023-09-18T06:32:00;22.00;99.90
5218;DHT22;26539;51.064;6.346;2023-09-18T06:34:29;22.00;99.90
5218;DHT22;26539;51.064;6.346;2023-09-18T06:36:57;22.10;1.00
5218;DHT22;26539;51.064;6.346;2023-09-18T06:39:22;22.10;1.00
5218;DHT22;26539;51.064;6.346;2023-09-18T06:41:49;22.10;1.00
5218;DHT22;26539;51.064;6.346;2023-09-18T06:44:14;22.20;99.90
5218;DHT22;26539;51.064;6.346;2023-09-18T06:46:40;22.30;99.90
5218;DHT22;26539;51.064;6.346;2023-09-18T06:49:06;22.40;99.90
5218;DHT22;26539;51.064;6.346;2023-09-18T06:51:31;22.40;30.40
5218;DHT22;26539;51.064;6.346;2023-09-18T06:53:57;22.40;1.00
5218;DHT22;26539;51.064;6.346;2023-09-18T06:56:25;22.40;1.00
5218;DHT22;26539;51.064;6.346;2023-09-18T06:58:51;22.40;1.00
5218;DHT22;26539;51.064;6.346;2023-09-18T07:01:20;22.40;1.00
5218;DHT22;26539;51.064;6.346;2023-09-18T07:03:49;22.30;99.90
5218;DHT22;26539;51.064;6.346;2023-09-18T07:06:15;22.30;99.90
5218;DHT22;26539;51.064;6.346;2023-09-18T07:08:47;22.20;99.90
5218;DHT22;26539;51.064;6.346;2023-09-18T07:11:17;22.20;1.00
5218;DHT22;26539;51.064;6.346;2023-09-18T07:13:43;22.10;1.00
5218;DHT22;26539;51.064;6.346;2023-09-18T07:16:09;22.10;1.00
5218;DHT22;26539;51.064;6.346;2023-09-18T07:18:35;22.10;1.00
5218;DHT22;26539;51.064;6.346;2023-09-18T07:21:00;22.10;1.00
5218;DHT22;26539;51.064;6.346;2023-09-18T07:23:26;22.10;1.00
5218;DHT22;26539;51.064;6.346;2023-09-18T07:25:52;22.20;1.00
5218;DHT22;26539;51.064;6.346;2023-09-18T07:28:17;22.10;1.00
5218;DHT22;26539;51.064;6.346;2023-09-18T07:30:44;22.10;1.00
5218;DHT22;26539;51.064;6.346;2023-09-18T07:33:10;22.10;1.00
5218;DHT22;26539;51.064;6.346;2023-09-18T07:35:36;22.10;1.00
5218;DHT22;26539;51.064;6.346;2023-09-18T07:38:02;22.10;1.00
5218;DHT22;26539;51.064;6.346;2023-09-18T07:40:27;22.10;1.00
5218;DHT22;26539;51.064;6.346;2023-09-18T07:42:53;22.10;99.90
5218;DHT22;26539;51.064;6.346;2023-09-18T07:45:18;22.10;1.00
5218;DHT22;26539;51.064;6.346;2023-09-18T07:47:44;22.10;1.00
5218;DHT22;26539;51.064;6.346;2023-09-18T07:50:09;22.20;99.90
5218;DHT22;26539;51.064;6.346;2023-09-18T07:52:35;22.30;99.90
5218;DHT22;26539;51.064;6.346;2023-09-18T07:55:01;22.30;99.90
5218;DHT22;26539;51.064;6.346;2023-09-18T07:57:27;22.30;93.20
5218;DHT22;26539;51.064;6.346;2023-09-18T07:59:57;22.20;99.90
5218;DHT22;26539;51.064;6.346;2023-09-18T08:02:24;22.20;99.90
5218;DHT22;26539;51.064;6.346;2023-09-18T08:04:49;22.30;41.90
5218;DHT22;26539;51.064;6.346;2023-09-18T08:07:15;22.50;1.00
5218;DHT22;26539;51.064;6.346;2023-09-18T08:09:41;22.80;1.00
5218;DHT22;26539;51.064;6.346;2023-09-18T08:12:08;23.40;99.90
5218;DHT22;26539;51.064;6.346;2023-09-18T08:14:34;23.80;99.90
5218;DHT22;26539;51.064;6.346;2023-09-18T08:17:03;24.10;99.90
5218;DHT22;26539;51.064;6.346;2023-09-18T08:19:30;24.20;99.90
5218;DHT22;26539;51.064;6.346;2023-09-18T08:21:56;24.10;93.00
5218;DHT22;26539;51.064;6.346;2023-09-18T08:24:22;23.90;96.00
5218;DHT22;26539;51.064;6.346;2023-09-18T08:26:49;23.70;99.90
5218;DHT22;26539;51.064;6.346;2023-09-18T08:29:15;23.40;99.90
5218;DHT22;26539;51.064;6.346;2023-09-18T08:31:41;23.30;99.90
5218;DHT22;26539;51.064;6.346;2023-09-18T08:34:06;23.30;99.90
5218;DHT22;26539;51.064;6.346;2023-09-18T08:36:32;23.40;99.90
5218;DHT22;26539;51.064;6.346;2023-09-18T08:38:57;23.50;99.90
5218;DHT22;26539;51.064;6.346;2023-09-18T08:41:24;23.60;99.90
5218;DHT22;26539;51.064;6.346;2023-09-18T08:44:02;23.80;99.90
5218;DHT22;26539;51.064;6.346;2023-09-18T08:46:30;23.80;91.60
5218;DHT22;26539;51.064;6.346;2023-09-18T08:48:56;24.00;52.50
5218;DHT22;26539;51.064;6.346;2023-09-18T08:51:23;24.30;17.20
5218;DHT22;26539;51.064;6.346;2023-09-18T08:53:48;24.50;1.80
5218;DHT22;26539;51.064;6.346;2023-09-18T08:56:15;24.50;1.00
5218;DHT22;26539;51.064;6.346;2023-09-18T08:58:42;24.50;1.00
5218;DHT22;26539;51.064;6.346;2023-09-18T09:01:11;24.50;1.00
5218;DHT22;26539;51.064;6.346;2023-09-18T09:03:41;24.50;1.00
5218;DHT22;26539;51.064;6.346;2023-09-18T09:06:08;24.50;1.00
5218;DHT22;26539;51.064;6.346;2023-09-18T09:08:34;24.60;1.00
5218;DHT22;26539;51.064;6.346;2023-09-18T09:11:00;24.50;1.00
5218;DHT22;26539;51.064;6.346;2023-09-18T09:13:26;24.50;1.00
5218;DHT22;26539;51.064;6.346;2023-09-18T09:15:56;24.60;1.00
5218;DHT22;26539;51.064;6.346;2023-09-18T09:18:26;24.70;1.00
5218;DHT22;26539;51.064;6.346;2023-09-18T09:21:00;24.90;1.00
5218;DHT22;26539;51.064;6.346;2023-09-18T09:23:27;25.00;1.00
5218;DHT22;26539;51.064;6.346;2023-09-18T09:25:59;25.30;1.00
5218;DHT22;26539;51.064;6.346;2023-09-18T09:28:37;26.00;1.00
5218;DHT22;26539;51.064;6.346;2023-09-18T09:31:03;27.10;1.00
5218;DHT22;26539;51.064;6.346;2023-09-18T09:33:29;27.20;1.00
5218;DHT22;26539;51.064;6.346;2023-09-18T09:35:55;27.60;1.00
5218;DHT22;26539;51.064;6.346;2023-09-18T09:38:31;28.20;1.00
5218;DHT22;26539;51.064;6.346;2023-09-18T09:40:58;29.10;1.00
5218;DHT22;26539;51.064;6.346;2023-09-18T09:43:25;29.70;1.00
5218;DHT22;26539;51.064;6.346;2023-09-18T09:45:57;30.70;1.00
5218;DHT22;26539;51.064;6.346;2023-09-18T09:48:23;32.20;1.00
5218;DHT22;26539;51.064;6.346;2023-09-18T09:51:01;33.90;1.00
5218;DHT22;26539;51.064;6.346;2023-09-18T09:53:46;35.90;1.00
5218;DHT22;26539;51.064;6.346;2023-09-18T09:56:13;38.00;1.00
5218;DHT22;26539;51.064;6.346;2023-09-18T09:58:39;39.00;1.00
5218;DHT22;26539;51.064;6.346;2023-09-18T10:01:11;40.40;1.00
5218;DHT22;26539;51.064;6.346;2023-09-18T10:03:44;41.10;1.00
5218;DHT22;26539;51.064;6.346;2023-09-18T10:06:10;41.50;1.00
5218;DHT22;26539;51.064;6.346;2023-09-18T10:08:39;41.80;1.00
5218;DHT22;26539;51.064;6.346;2023-09-18T10:11:09;42.10;1.00
5218;DHT22;26539;51.064;6.346;2023-09-18T10:13:55;42.00;1.00
5218;DHT22;26539;51.064;6.346;2023-09-18T10:16:23;42.10;1.00
5218;DHT22;26539;51.064;6.346;2023-09-18T10:18:56;41.70;1.00
5218;DHT22;26539;51.064;6.346;2023-09-18T10:21:27;41.90;1.00
5218;DHT22;26539;51.064;6.346;2023-09-18T10:23:59;42.00;1.00
5218;DHT22;26539;51.064;6.346;2023-09-18T10:26:29;41.90;1.00
5218;DHT22;26539;51.064;6.346;2023-09-18T10:28:59;41.90;1.00
5218;DHT22;26539;51.064;6.346;2023-09-18T10:31:29;41.60;1.00
5218;DHT22;26539;51.064;6.346;2023-09-18T10:33:56;41.30;1.00
5218;DHT22;26539;51.064;6.346;2023-09-18T10:36:24;40.70;1.00
5218;DHT22;26539;51.064;6.346;2023-09-18T10:38:51;40.70;1.00
5218;DHT22;26539;51.064;6.346;2023-09-18T10:41:20;40.80;1.00
5218;DHT22;26539;51.064;6.346;2023-09-18T10:43:46;40.80;1.00
5218;DHT22;26539;51.064;6.346;2023-09-18T10:46:15;40.50;1.00
5218;DHT22;26539;51.064;6.346;2023-09-18T10:48:44;40.50;1.00
5218;DHT22;26539;51.064;6.346;2023-09-18T10:51:11;40.50;1.00
5218;DHT22;26539;51.064;6.346;2023-09-18T10:53:39;40.00;1.00
5218;DHT22;26539;51.064;6.346;2023-09-18T10:56:05;39.80;1.00
5218;DHT22;26539;51.064;6.346;2023-09-18T10:58:34;39.90;1.00
5218;DHT22;26539;51.064;6.346;2023-09-18T11:01:04;40.30;1.00
5218;DHT22;26539;51.064;6.346;2023-09-18T11:03:33;39.40;1.00
5218;DHT22;26539;51.064;6.346;2023-09-18T11:06:04;39.50;1.00
5218;DHT22;26539;51.064;6.346;2023-09-18T11:08:36;39.40;1.00
5218;DHT22;26539;51.064;6.346;2023-09-18T11:11:10;39.60;1.00
5218;DHT22;26539;51.064;6.346;2023-09-18T11:13:42;39.50;1.00
5218;DHT22;26539;51.064;6.346;2023-09-18T11:18:42;37.20;1.00
5218;DHT22;26539;51.064;6.346;2023-09-18T11:21:09;37.30;1.00
5218;DHT22;26539;51.064;6.346;2023-09-18T11:23:37;36.20;1.00
5218;DHT22;26539;51.064;6.346;2023-09-18T11:26:10;35.90;1.00
5218;DHT22;26539;51.064;6.346;2023-09-18T11:28:37;36.60;1.00
5218;DHT22;26539;51.064;6.346;2023-09-18T11:31:03;36.00;1.00
5218;DHT22;26539;51.064;6.346;2023-09-18T11:33:39;35.50;1.00
5218;DHT22;26539;51.064;6.346;2023-09-18T11:36:13;35.60;1.00
5218;DHT22;26539;51.064;6.346;2023-09-18T11:39:00;35.00;1.00
5218;DHT22;26539;51.064;6.346;2023-09-18T11:41:31;35.80;1.00
5218;DHT22;26539;51.064;6.346;2023-09-18T11:46:39;37.40;1.00
5218;DHT22;26539;51.064;6.346;2023-09-18T11:49:08;38.10;1.00
5218;DHT22;26539;51.064;6.346;2023-09-18T11:51:36;38.30;1.00
5218;DHT22;26539;51.064;6.346;2023-09-18T11:54:03;38.50;1.00
5218;DHT22;26539;51.064;6.346;2023-09-18T11:56:32;38.50;1.00
5218;DHT22;26539;51.064;6.346;2023-09-18T11:58:57;38.10;1.00
5218;DHT22;26539;51.064;6.346;2023-09-18T12:01:24;36.90;1.00
5218;DHT22;26539;51.064;6.346;2023-09-18T12:04:03;35.90;1.00
5218;DHT22;26539;51.064;6.346;2023-09-18T12:06:34;35.40;1.00
5218;DHT22;26539;51.064;6.346;2023-09-18T12:09:00;36.20;1.00
5218;DHT22;26539;51.064;6.346;2023-09-18T12:11:26;36.70;1.00
5218;DHT22;26539;51.064;6.346;2023-09-18T12:13:52;36.90;1.00
5218;DHT22;26539;51.064;6.346;2023-09-18T12:16:17;36.80;1.00
5218;DHT22;26539;51.064;6.346;2023-09-18T12:18:48;37.40;1.00
5218;DHT22;26539;51.064;6.346;2023-09-18T12:21:15;37.80;1.00
5218;DHT22;26539;51.064;6.346;2023-09-18T12:23:43;37.90;1.00
5218;DHT22;26539;51.064;6.346;2023-09-18T12:26:14;38.00;1.00
5218;DHT22;26539;51.064;6.346;2023-09-18T12:28:41;38.30;1.00
5218;DHT22;26539;51.064;6.346;2023-09-18T12:31:15;38.60;1.00
5218;DHT22;26539;51.064;6.346;2023-09-18T12:33:42;38.40;1.00
5218;DHT22;26539;51.064;6.346;2023-09-18T12:36:09;38.20;1.00
5218;DHT22;26539;51.064;6.346;2023-09-18T12:38:36;37.80;1.00
5218;DHT22;26539;51.064;6.346;2023-09-18T12:41:03;37.70;1.00
5218;DHT22;26539;51.064;6.346;2023-09-18T12:43:34;36.70;1.00
5218;DHT22;26539;51.064;6.346;2023-09-18T12:46:01;36.70;1.00
5218;DHT22;26539;51.064;6.346;2023-09-18T12:48:27;36.10;1.00
5218;DHT22;26539;51.064;6.346;2023-09-18T12:50:52;36.30;1.00
5218;DHT22;26539;51.064;6.346;2023-09-18T12:53:24;36.20;1.00
5218;DHT22;26539;51.064;6.346;2023-09-18T12:55:49;36.30;1.00
5218;DHT22;26539;51.064;6.346;2023-09-18T12:58:19;36.90;1.00
5218;DHT22;26539;51.064;6.346;2023-09-18T13:00:49;36.20;1.00
5218;DHT22;26539;51.064;6.346;2023-09-18T13:03:18;36.30;1.00
5218;DHT22;26539;51.064;6.346;2023-09-18T13:05:44;35.70;1.00
5218;DHT22;26539;51.064;6.346;2023-09-18T13:08:09;35.00;99.90
5218;DHT22;26539;51.064;6.346;2023-09-18T13:10:45;34.20;99.90
5218;DHT22;26539;51.064;6.346;2023-09-18T13:13:21;33.40;99.90
5218;DHT22;26539;51.064;6.346;2023-09-18T13:15:48;32.70;99.90
5218;DHT22;26539;51.064;6.346;2023-09-18T13:18:15;32.50;99.90
5218;DHT22;26539;51.064;6.346;2023-09-18T13:20:41;32.80;99.90
5218;DHT22;26539;51.064;6.346;2023-09-18T13:23:08;33.40;1.00
5218;DHT22;26539;51.064;6.346;2023-09-18T13:25:36;33.90;1.00
5218;DHT22;26539;51.064;6.346;2023-09-18T13:28:05;34.20;1.00
5218;DHT22;26539;51.064;6.346;2023-09-18T13:30:31;34.40;1.00
5218;DHT22;26539;51.064;6.346;2023-09-18T13:33:16;34.10;1.00
5218;DHT22;26539;51.064;6.346;2023-09-18T13:35:44;34.20;1.00
5218;DHT22;26539;51.064;6.346;2023-09-18T13:41:11;34.00;1.00
5218;DHT22;26539;51.064;6.346;2023-09-18T13:43:38;34.10;1.00
5218;DHT22;26539;51.064;6.346;2023-09-18T13:46:04;34.00;1.00
5218;DHT22;26539;51.064;6.346;2023-09-18T13:48:30;34.00;1.00
5218;DHT22;26539;51.064;6.346;2023-09-18T13:50:56;33.70;1.00
5218;DHT22;26539;51.064;6.346;2023-09-18T13:53:21;33.80;1.00
5218;DHT22;26539;51.064;6.346;2023-09-18T13:55:47;33.60;1.00
5218;DHT22;26539;51.064;6.346;2023-09-18T13:58:13;33.60;1.00
5218;DHT22;26539;51.064;6.346;2023-09-18T14:00:39;33.50;1.00
5218;DHT22;26539;51.064;6.346;2023-09-18T14:03:04;33.50;1.00
5218;DHT22;26539;51.064;6.346;2023-09-18T14:05:30;33.40;1.00
5218;DHT22;26539;51.064;6.346;2023-09-18T14:07:56;33.20;99.90
5218;DHT22;26539;51.064;6.346;2023-09-18T14:10:25;33.00;99.90
5218;DHT22;26539;51.064;6.346;2023-09-18T14:12:50;32.80;99.90
5218;DHT22;26539;51.064;6.346;2023-09-18T14:15:16;32.40;99.90
5218;DHT22;26539;51.064;6.346;2023-09-18T14:17:41;32.30;99.90
5218;DHT22;26539;51.064;6.346;2023-09-18T14:20:07;32.20;99.90
5218;DHT22;26539;51.064;6.346;2023-09-18T14:22:34;32.20;99.90
5218;DHT22;26539;51.064;6.346;2023-09-18T14:24:59;32.40;99.90
5218;DHT22;26539;51.064;6.346;2023-09-18T14:27:27;31.80;99.90
5218;DHT22;26539;51.064;6.346;2023-09-18T14:29:52;31.50;99.90
5218;DHT22;26539;51.064;6.346;2023-09-18T14:32:18;31.30;99.90
5218;DHT22;26539;51.064;6.346;2023-09-18T14:34:44;31.30;99.90
5218;DHT22;26539;51.064;6.346;2023-09-18T14:37:11;31.30;99.90
5218;DHT22;26539;51.064;6.346;2023-09-18T14:39:36;31.30;99.90
5218;DHT22;26539;51.064;6.346;2023-09-18T14:42:02;31.20;99.90
5218;DHT22;26539;51.064;6.346;2023-09-18T14:44:27;31.00;99.90
5218;DHT22;26539;51.064;6.346;2023-09-18T14:46:54;31.00;99.90
5218;DHT22;26539;51.064;6.346;2023-09-18T14:49:20;30.90;99.90
5218;DHT22;26539;51.064;6.346;2023-09-18T14:51:45;30.70;99.90
5218;DHT22;26539;51.064;6.346;2023-09-18T14:54:11;30.20;99.90
5218;DHT22;26539;51.064;6.346;2023-09-18T14:56:37;30.20;99.90
5218;DHT22;26539;51.064;6.346;2023-09-18T14:59:06;30.00;99.90
5218;DHT22;26539;51.064;6.346;2023-09-18T15:01:33;29.80;99.90
5218;DHT22;26539;51.064;6.346;2023-09-18T15:03:58;29.50;99.90
5218;DHT22;26539;51.064;6.346;2023-09-18T15:06:24;29.50;99.90
5218;DHT22;26539;51.064;6.346;2023-09-18T15:08:50;29.30;99.90
5218;DHT22;26539;51.064;6.346;2023-09-18T15:11:16;29.30;99.90
5218;DHT22;26539;51.064;6.346;2023-09-18T15:13:45;29.20;99.90
5218;DHT22;26539;51.064;6.346;2023-09-18T15:16:11;29.20;99.90
5218;DHT22;26539;51.064;6.346;2023-09-18T15:18:37;29.10;99.90
5218;DHT22;26539;51.064;6.346;2023-09-18T15:21:03;29.10;99.90
5218;DHT22;26539;51.064;6.346;2023-09-18T15:23:28;29.20;99.90
5218;DHT22;26539;51.064;6.346;2023-09-18T15:25:55;29.20;99.90
5218;DHT22;26539;51.064;6.346;2023-09-18T15:28:22;29.00;99.90
5218;DHT22;26539;51.064;6.346;2023-09-18T15:30:50;28.90;99.90
5218;DHT22;26539;51.064;6.346;2023-09-18T15:33:16;28.80;99.90
5218;DHT22;26539;51.064;6.346;2023-09-18T15:35:43;28.80;99.90
5218;DHT22;26539;51.064;6.346;2023-09-18T15:38:08;28.80;99.90
5218;DHT22;26539;51.064;6.346;2023-09-18T15:40:34;28.70;99.90
5218;DHT22;26539;51.064;6.346;2023-09-18T15:42:59;28.60;99.90
5218;DHT22;26539;51.064;6.346;2023-09-18T15:45:25;28.50;99.90
5218;DHT22;26539;51.064;6.346;2023-09-18T15:47:51;28.50;99.90
5218;DHT22;26539;51.064;6.346;2023-09-18T15:50:17;28.40;99.90
5218;DHT22;26539;51.064;6.346;2023-09-18T15:52:43;28.20;1.00
5218;DHT22;26539;51.064;6.346;2023-09-18T15:55:09;28.10;1.00
5218;DHT22;26539;51.064;6.346;2023-09-18T15:57:36;28.30;1.00
5218;DHT22;26539;51.064;6.346;2023-09-18T16:00:03;28.30;1.00
5218;DHT22;26539;51.064;6.346;2023-09-18T16:02:30;28.20;1.00